Time;durP1;ratioP1;P1;durP2;ratioP2;P2;SDS_P1;SDS_P2;PMS_P1;PMS_P2;Temp;Humidity;BMP_temperature;BMP_pressure;BME280_temperature;BME280_humidity;BME280_pressure;Samples;Min_cycle;Max_cycle;Signal;HPM_P1;HPM_P2
2023/08/08 00:02:08;;;;;;;2.25;1.60;;;;;;;12.34;75.56;96863.75;4908155;29;20132;-80
2023/08/08 00:04:35;;;;;;;4.78;1.88;;;;;;;12.37;75.23;96880.88;4908163;29;20128;-79
2023/08/08 00:07:03;;;;;;;2.60;1.40;;;;;;;12.35;74.72;96868.00;4906250;29;20049;-80
2023/08/08 00:09:31;;;;;;;5.15;2.35;;;;;;;12.31;73.90;96858.91;4905901;29;20583;-80
2023/08/08 00:11:58;;;;;;;3.42;1.95;;;;;;;12.29;73.85;96865.31;4906132;29;20131;-79
2023/08/08 00:14:28;;;;;;;1.92;1.33;;;;;;;12.30;73.73;96862.50;4906395;29;20115;-80
2023/08/08 00:16:56;;;;;;;2.42;1.70;;;;;;;12.29;73.27;96863.50;4906526;29;20081;-80
2023/08/08 00:19:23;;;;;;;3.35;1.67;;;;;;;12.27;73.31;96862.06;4904114;29;20061;-79
2023/08/08 00:21:51;;;;;;;3.85;1.70;;;;;;;12.26;75.21;96858.63;4900137;29;20062;-80
2023/08/08 00:24:18;;;;;;;2.22;1.33;;;;;;;12.24;74.25;96855.38;4899885;29;20140;-79
2023/08/08 00:26:46;;;;;;;2.05;1.50;;;;;;;12.23;73.84;96847.75;4899712;29;20109;-80
2023/08/08 00:29:13;;;;;;;3.10;1.70;;;;;;;12.19;73.72;96844.69;4912383;29;20056;-79
2023/08/08 00:31:42;;;;;;;1.98;1.58;;;;;;;12.15;73.81;96854.69;4916808;29;20060;-80
2023/08/08 00:34:10;;;;;;;8.05;2.00;;;;;;;12.13;73.90;96851.47;4912015;29;20464;-80
2023/08/08 00:36:37;;;;;;;2.50;1.45;;;;;;;12.15;75.96;96848.66;4902962;29;20468;-79
2023/08/08 00:39:05;;;;;;;2.33;1.48;;;;;;;12.14;74.95;96847.06;4901872;29;20128;-79
2023/08/08 00:41:33;;;;;;;2.35;1.65;;;;;;;12.12;74.48;96854.28;4900683;29;20503;-80
2023/08/08 00:44:00;;;;;;;2.15;1.52;;;;;;;12.10;74.34;96858.88;4901213;29;20110;-79
2023/08/08 00:46:28;;;;;;;3.33;1.40;;;;;;;12.10;75.92;96866.72;4901276;29;20048;-80
2023/08/08 00:48:57;;;;;;;1.80;1.55;;;;;;;12.12;75.80;96869.97;4902512;29;20515;-80
2023/08/08 00:51:25;;;;;;;1.92;1.83;;;;;;;12.14;76.17;96862.75;4899736;29;20068;-80
2023/08/08 00:53:55;;;;;;;2.92;1.67;;;;;;;12.15;75.20;96869.56;4899895;29;20105;-79
2023/08/08 00:56:22;;;;;;;1.58;1.30;;;;;;;12.11;74.80;96860.47;4900274;29;20044;-80
2023/08/08 00:58:51;;;;;;;2.55;1.65;;;;;;;12.14;76.96;96857.50;4899454;29;20077;-79
2023/08/08 01:01:19;;;;;;;3.63;1.55;;;;;;;12.16;76.03;96860.75;4899253;29;20056;-79
2023/08/08 01:03:47;;;;;;;1.48;1.35;;;;;;;12.13;75.41;96845.41;4902747;29;20100;-80
2023/08/08 01:06:24;;;;;;;1.75;1.40;;;;;;;12.12;75.50;96844.63;4900609;29;20060;-79
2023/08/08 01:08:58;;;;;;;1.88;1.48;;;;;;;12.09;75.27;96842.38;4899258;29;20108;-79
2023/08/08 01:11:28;;;;;;;4.88;1.30;;;;;;;12.11;75.24;96847.41;4899037;29;20052;-79
2023/08/08 01:13:57;;;;;;;1.92;1.35;;;;;;;12.08;75.70;96843.34;4899815;29;20056;-79
2023/08/08 01:16:27;;;;;;;2.70;1.63;;;;;;;12.07;78.09;96833.91;4899015;29;20132;-79
2023/08/08 01:18:55;;;;;;;2.50;1.45;;;;;;;12.06;76.12;96834.09;4899113;29;20506;-80
2023/08/08 01:21:28;;;;;;;2.47;1.58;;;;;;;12.05;75.71;96832.47;4898677;29;20121;-79
2023/08/08 01:24:01;;;;;;;2.13;1.58;;;;;;;12.03;75.22;96824.00;4899328;29;20049;-79
2023/08/08 01:26:32;;;;;;;2.00;1.85;;;;;;;12.01;74.93;96828.59;4899401;29;20109;-79
2023/08/08 01:28:59;;;;;;;1.40;1.30;;;;;;;12.01;74.66;96826.00;4899328;29;20111;-80
2023/08/08 01:31:27;;;;;;;4.90;1.90;;;;;;;12.01;74.97;96831.22;4899043;29;20105;-79
2023/08/08 01:33:54;;;;;;;2.25;1.23;;;;;;;12.02;74.75;96825.78;4898604;29;20048;-79
2023/08/08 01:36:28;;;;;;;1.77;1.50;;;;;;;12.03;74.41;96827.44;4899061;29;20060;-79
2023/08/08 01:39:04;;;;;;;2.00;1.80;;;;;;;12.04;74.43;96823.00;4898657;29;20056;-79
2023/08/08 01:41:34;;;;;;;3.10;1.60;;;;;;;12.02;74.83;96815.34;4913475;29;20052;-79
2023/08/08 01:44:03;;;;;;;1.70;1.60;;;;;;;12.05;76.46;96822.03;4901408;29;20112;-80
2023/08/08 01:46:31;;;;;;;3.42;1.77;;;;;;;12.08;75.75;96819.03;4898506;29;20051;-79
2023/08/08 01:48:59;;;;;;;2.17;1.38;;;;;;;12.11;75.45;96823.88;4898698;29;20463;-80
2023/08/08 01:51:28;;;;;;;2.25;1.38;;;;;;;12.12;75.39;96817.66;4898116;29;20048;-79
2023/08/08 01:53:55;;;;;;;4.07;1.67;;;;;;;12.14;75.13;96816.47;4898479;29;20060;-80
2023/08/08 01:56:23;;;;;;;3.67;1.40;;;;;;;12.13;75.05;96814.88;4898166;29;20523;-80
2023/08/08 01:58:52;;;;;;;1.70;1.42;;;;;;;12.15;74.93;96809.44;4900309;29;20044;-80
2023/08/08 02:01:20;;;;;;;3.28;1.50;;;;;;;12.16;74.78;96803.22;4901774;29;20057;-80
2023/08/08 02:03:47;;;;;;;3.47;1.65;;;;;;;12.16;74.77;96808.44;4902264;29;20060;-79
2023/08/08 02:06:15;;;;;;;3.35;1.63;;;;;;;12.19;74.96;96808.06;4898229;29;20052;-79
2023/08/08 02:08:44;;;;;;;3.00;1.30;;;;;;;12.20;74.63;96812.31;4897792;29;20507;-80
2023/08/08 02:11:12;;;;;;;2.78;1.73;;;;;;;12.22;74.38;96815.53;4897844;29;20135;-79
2023/08/08 02:13:39;;;;;;;1.67;1.48;;;;;;;12.24;74.60;96816.16;4898916;29;20136;-79
2023/08/08 02:16:08;;;;;;;3.08;1.92;;;;;;;12.24;74.40;96810.91;4898403;29;20483;-79
2023/08/08 02:18:40;;;;;;;4.25;1.67;;;;;;;12.25;74.49;96825.63;4897891;29;20076;-79
2023/08/08 02:21:08;;;;;;;2.97;1.60;;;;;;;12.26;74.57;96819.41;4943508;23;20061;-83
2023/08/08 02:23:36;;;;;;;2.88;1.58;;;;;;;12.27;75.19;96815.78;4905667;29;20707;-89
2023/08/08 02:26:04;;;;;;;1.60;1.50;;;;;;;12.30;75.16;96812.78;4906039;29;20060;-87
2023/08/08 02:28:32;;;;;;;3.72;1.98;;;;;;;12.32;74.59;96810.81;4905299;29;20048;-89
2023/08/08 02:31:00;;;;;;;2.72;1.50;;;;;;;12.33;74.71;96809.81;4905113;29;20451;-88
2023/08/08 02:33:30;;;;;;;2.05;1.85;;;;;;;12.34;74.72;96813.25;4905328;29;20116;-86
2023/08/08 02:35:58;;;;;;;2.67;1.40;;;;;;;12.34;74.51;96814.03;4905066;29;20053;-86
2023/08/08 02:38:25;;;;;;;4.57;1.58;;;;;;;12.33;74.27;96814.22;4905452;29;20112;-84
2023/08/08 02:40:53;;;;;;;2.17;1.60;;;;;;;12.33;74.23;96820.28;4905749;29;20044;-89
2023/08/08 02:43:21;;;;;;;1.77;1.67;;;;;;;12.32;74.21;96816.03;4913277;29;20072;-88
2023/08/08 02:45:49;;;;;;;3.72;1.58;;;;;;;12.34;74.31;96815.84;4913693;29;20115;-90
2023/08/08 02:48:17;;;;;;;2.45;1.75;;;;;;;12.36;74.50;96814.66;4910893;29;20534;-89
2023/08/08 02:50:46;;;;;;;2.17;1.52;;;;;;;12.40;74.35;96816.91;4908528;29;20542;-89
2023/08/08 02:53:14;;;;;;;1.60;1.50;;;;;;;12.41;74.36;96810.69;4908566;29;20056;-88
2023/08/08 02:55:42;;;;;;;1.67;1.40;;;;;;;12.42;74.42;96807.06;4908901;29;20051;-89
2023/08/08 02:58:10;;;;;;;1.75;1.52;;;;;;;12.40;74.45;96796.81;4908007;29;20059;-89
2023/08/08 03:00:38;;;;;;;2.72;1.10;;;;;;;12.39;74.45;96802.22;4908053;29;20068;-85
2023/08/08 03:03:06;;;;;;;2.42;1.58;;;;;;;12.38;74.21;96800.59;4907191;29;20506;-86
2023/08/08 03:05:34;;;;;;;2.95;1.60;;;;;;;12.38;74.43;96805.84;4909098;29;20063;-86
2023/08/08 03:08:03;;;;;;;1.30;1.15;;;;;;;12.40;74.66;96809.06;4907017;29;20560;-86
2023/08/08 03:10:31;;;;;;;3.78;1.42;;;;;;;12.40;74.63;96793.34;4905992;29;20056;-84
2023/08/08 03:12:59;;;;;;;2.85;1.30;;;;;;;12.42;75.18;96802.66;4908284;29;20574;-88
2023/08/08 03:15:26;;;;;;;2.53;1.30;;;;;;;12.44;75.06;96798.03;4910377;29;20478;-88
2023/08/08 03:17:55;;;;;;;1.77;1.20;;;;;;;12.45;75.26;96796.22;4910073;29;20090;-87
2023/08/08 03:20:23;;;;;;;4.03;1.50;;;;;;;12.46;75.02;96793.44;4908637;29;20143;-83
2023/08/08 03:22:51;;;;;;;2.53;1.60;;;;;;;12.48;74.96;96801.88;4910261;29;20120;-89
2023/08/08 03:25:21;;;;;;;3.60;1.70;;;;;;;12.49;74.78;96800.91;4909106;29;20056;-82
2023/08/08 03:27:48;;;;;;;2.10;1.30;;;;;;;12.51;74.37;96795.47;4908741;29;20048;-85
2023/08/08 03:30:16;;;;;;;3.55;1.92;;;;;;;12.52;74.37;96791.84;4909383;29;20396;-83
2023/08/08 03:32:44;;;;;;;3.33;1.63;;;;;;;12.52;74.55;96795.28;4908263;29;20060;-88
2023/08/08 03:35:12;;;;;;;2.58;1.88;;;;;;;12.54;74.73;96801.13;4909253;29;20064;-88
2023/08/08 03:37:40;;;;;;;2.03;1.30;;;;;;;12.54;74.84;96800.31;4908962;29;20059;-86
2023/08/08 03:40:09;;;;;;;3.92;1.40;;;;;;;12.55;74.77;96812.41;4908691;29;20044;-89
2023/08/08 03:42:38;;;;;;;5.25;1.73;;;;;;;12.56;75.09;96806.19;4907833;29;20104;-83
2023/08/08 03:45:07;;;;;;;2.75;1.40;;;;;;;12.56;75.54;96803.56;4908263;29;20053;-84
2023/08/08 03:47:35;;;;;;;4.10;1.60;;;;;;;12.57;76.15;96807.78;4907120;29;20143;-83
2023/08/08 03:50:04;;;;;;;2.63;1.60;;;;;;;12.55;75.65;96807.16;4907993;29;20095;-89
2023/08/08 03:52:34;;;;;;;1.98;1.42;;;;;;;12.51;75.22;96805.94;4908711;29;20104;-85
2023/08/08 03:55:02;;;;;;;2.30;1.88;;;;;;;12.50;76.53;96801.69;4908262;29;20446;-86
2023/08/08 03:57:31;;;;;;;2.58;1.80;;;;;;;12.50;76.33;96804.31;4908765;29;20080;-85
2023/08/08 04:00:00;;;;;;;4.90;2.22;;;;;;;12.47;75.83;96815.97;4908997;29;20056;-84
2023/08/08 04:02:28;;;;;;;2.30;1.70;;;;;;;12.45;75.54;96804.88;4906418;29;20041;-88
2023/08/08 04:04:55;;;;;;;3.38;1.95;;;;;;;12.45;75.25;96814.53;4902337;29;20053;-89
2023/08/08 04:07:24;;;;;;;2.53;1.70;;;;;;;12.43;75.33;96808.69;4908800;29;20472;-89
2023/08/08 04:09:51;;;;;;;3.33;1.80;;;;;;;12.42;75.25;96802.66;4908043;29;20052;-82
2023/08/08 04:12:19;;;;;;;3.53;2.10;;;;;;;12.40;75.18;96812.50;4907759;29;20068;-86
2023/08/08 04:14:47;;;;;;;3.30;2.22;;;;;;;12.36;75.28;96814.66;4891016;29;20052;-85
2023/08/08 04:17:17;;;;;;;5.47;1.90;;;;;;;12.34;75.55;96815.84;4906389;29;20064;-89
2023/08/08 04:19:45;;;;;;;6.75;1.85;;;;;;;12.32;75.70;96810.81;4906778;29;20459;-83
2023/08/08 04:22:13;;;;;;;4.05;2.10;;;;;;;12.30;75.83;96819.84;4907455;29;20049;-89
2023/08/08 04:24:41;;;;;;;6.63;2.33;;;;;;;12.26;75.84;96813.34;4887906;29;20518;-82
2023/08/08 04:27:09;;;;;;;3.10;1.85;;;;;;;12.23;75.80;96809.31;4888207;29;20109;-83
2023/08/08 04:29:37;;;;;;;6.07;2.15;;;;;;;12.23;75.93;96825.00;4901337;29;20045;-88
2023/08/08 04:32:06;;;;;;;4.47;2.20;;;;;;;12.23;75.97;96819.78;4890162;29;20530;-84
2023/08/08 04:34:35;;;;;;;3.08;2.22;;;;;;;12.25;75.87;96816.97;4906452;29;20056;-87
2023/08/08 04:37:04;;;;;;;6.03;2.08;;;;;;;12.28;75.99;96820.03;4909055;29;20048;-90
2023/08/08 04:39:31;;;;;;;2.95;2.42;;;;;;;12.32;77.68;96810.81;4902060;29;20143;-74
2023/08/08 04:41:59;;;;;;;4.13;2.20;;;;;;;12.35;76.72;96822.69;4881752;29;20053;-75
2023/08/08 04:44:27;;;;;;;1.48;1.38;;;;;;;12.35;76.51;96820.06;4883372;29;20578;-74
2023/08/08 04:46:55;;;;;;;4.30;2.08;;;;;;;12.36;76.22;96814.66;4885705;29;20140;-74
2023/08/08 04:49:22;;;;;;;3.80;1.90;;;;;;;12.39;76.25;96813.47;4882134;29;20053;-78
2023/08/08 04:51:51;;;;;;;3.35;2.00;;;;;;;12.42;76.01;96812.28;4899315;29;20084;-80
2023/08/08 04:54:19;;;;;;;4.43;1.67;;;;;;;12.45;75.97;96804.09;4900612;29;20056;-77
2023/08/08 04:56:46;;;;;;;3.28;1.60;;;;;;;12.47;75.90;96804.69;4900741;29;20104;-78
2023/08/08 04:59:14;;;;;;;3.28;1.60;;;;;;;12.50;75.54;96804.31;4891039;29;20077;-78
2023/08/08 05:01:41;;;;;;;1.88;1.70;;;;;;;12.56;77.00;96808.81;4889504;29;20084;-77
2023/08/08 05:04:09;;;;;;;2.33;2.05;;;;;;;12.65;76.91;96812.91;4885086;29;20061;-77
2023/08/08 05:06:37;;;;;;;4.50;2.40;;;;;;;12.70;76.92;96807.91;4897715;29;20049;-78
2023/08/08 05:09:09;;;;;;;2.20;1.98;;;;;;;12.77;77.12;96811.38;4902763;29;20108;-79
2023/08/08 05:11:36;;;;;;;2.45;1.73;;;;;;;12.84;75.96;96800.16;4902041;29;20060;-79
2023/08/08 05:14:04;;;;;;;3.83;1.73;;;;;;;12.89;76.49;96810.84;4897721;29;20053;-78
2023/08/08 05:16:32;;;;;;;2.13;1.92;;;;;;;12.93;75.17;96801.63;4895849;29;20076;-76
2023/08/08 05:18:59;;;;;;;2.60;1.88;;;;;;;12.99;76.65;96798.25;4903531;29;20479;-78
2023/08/08 05:21:27;;;;;;;5.15;1.70;;;;;;;13.06;75.14;96804.31;4903278;29;20080;-79
2023/08/08 05:23:54;;;;;;;2.55;1.77;;;;;;;13.09;74.72;96803.94;4902333;29;20422;-78
2023/08/08 05:26:23;;;;;;;3.30;1.73;;;;;;;13.15;74.52;96805.78;4886140;29;20048;-80
2023/08/08 05:28:51;;;;;;;3.10;1.98;;;;;;;13.20;75.04;96808.63;4883849;29;20078;-76
2023/08/08 05:31:18;;;;;;;2.00;1.80;;;;;;;13.26;74.34;96808.88;4891793;29;20052;-78
2023/08/08 05:33:46;;;;;;;2.05;1.42;;;;;;;13.31;75.07;96803.88;4903053;29;20063;-77
2023/08/08 05:36:14;;;;;;;4.97;1.58;;;;;;;13.35;74.71;96805.91;4890634;29;20101;-77
2023/08/08 05:38:41;;;;;;;2.60;1.80;;;;;;;13.39;75.33;96808.97;4894476;29;20134;-77
2023/08/08 05:41:09;;;;;;;4.72;2.05;;;;;;;13.44;75.57;96805.75;4900672;29;20077;-79
2023/08/08 05:43:38;;;;;;;1.85;1.63;;;;;;;13.50;76.83;96810.22;4895113;29;20064;-78
2023/08/08 05:46:05;;;;;;;2.95;1.80;;;;;;;13.54;75.18;96806.22;4895382;29;20056;-77
2023/08/08 05:48:33;;;;;;;3.03;1.85;;;;;;;13.55;75.95;96811.25;4886499;29;20049;-79
2023/08/08 05:51:02;;;;;;;4.25;1.88;;;;;;;13.58;77.36;96805.63;4898339;29;20461;-76
2023/08/08 05:53:30;;;;;;;4.38;1.67;;;;;;;13.59;75.87;96812.47;4888132;29;20511;-79
2023/08/08 05:55:57;;;;;;;2.88;1.92;;;;;;;13.61;75.42;96812.28;4886697;29;20100;-76
2023/08/08 05:58:25;;;;;;;2.80;2.30;;;;;;;13.65;76.70;96815.34;4884740;29;20049;-76
2023/08/08 06:00:54;;;;;;;2.50;1.88;;;;;;;13.69;74.36;96816.56;4896101;29;20041;-78
2023/08/08 06:03:22;;;;;;;7.20;2.53;;;;;;;13.73;76.63;96807.28;4886034;29;20049;-76
2023/08/08 06:05:49;;;;;;;3.22;1.92;;;;;;;13.77;75.90;96811.13;4887534;29;20519;-77
2023/08/08 06:08:17;;;;;;;2.08;1.65;;;;;;;13.80;76.50;96808.13;4883230;29;20098;-78
2023/08/08 06:10:44;;;;;;;4.03;2.20;;;;;;;13.82;78.37;96808.75;4884103;29;20551;-77
2023/08/08 06:13:12;;;;;;;3.85;2.22;;;;;;;13.86;79.03;96807.31;4888230;29;20127;-76
2023/08/08 06:15:40;;;;;;;4.75;2.15;;;;;;;13.87;79.00;96806.34;4890965;29;20438;-75
2023/08/08 06:18:09;;;;;;;4.60;2.30;;;;;;;13.88;77.01;96807.94;4895939;29;20064;-77
2023/08/08 07:25:26;;;;;;;1.98;1.00;;;;;;;15.70;67.16;96797.16;5632915;23;20052;-79
2023/08/08 07:27:54;;;;;;;1.10;1.00;;;;;;;15.78;68.62;96796.94;4900385;29;20092;-79
2023/08/08 07:30:22;;;;;;;1.00;0.90;;;;;;;15.87;68.50;96790.41;4898278;29;20060;-79
2023/08/08 07:32:50;;;;;;;2.00;1.10;;;;;;;15.91;66.20;96788.97;4898259;29;20044;-79
2023/08/08 07:35:17;;;;;;;2.35;1.13;;;;;;;16.00;66.90;96795.59;4898160;29;20053;-79
2023/08/08 07:37:45;;;;;;;1.92;1.20;;;;;;;16.09;67.49;96798.00;4897917;29;20089;-79
2023/08/08 07:40:17;;;;;;;1.20;1.10;;;;;;;16.18;64.89;96788.81;4993121;23;20053;-79
2023/08/08 07:42:47;;;;;;;2.47;1.40;;;;;;;16.34;66.29;96785.69;4911775;29;20091;-79
2023/08/08 07:45:16;;;;;;;1.90;1.00;;;;;;;16.48;65.24;96791.66;4913049;29;20064;-79
2023/08/08 07:47:43;;;;;;;1.20;0.95;;;;;;;16.59;63.72;96793.59;4912337;29;20073;-79
2023/08/08 07:50:12;;;;;;;1.00;0.90;;;;;;;16.66;63.72;96788.25;4913582;29;20052;-79
2023/08/08 07:52:40;;;;;;;3.28;1.20;;;;;;;16.74;66.25;96787.19;4909359;29;20104;-79
2023/08/08 07:55:08;;;;;;;1.95;1.25;;;;;;;16.81;66.28;96791.41;4909060;29;20057;-79
2023/08/08 07:57:36;;;;;;;3.58;1.17;;;;;;;16.90;64.38;96786.66;4917090;29;20068;-79
2023/08/08 08:00:11;;;;;;;4.97;1.50;;;;;;;16.99;64.89;96781.91;4919945;29;20108;-79
2023/08/08 08:02:39;;;;;;;4.78;1.63;;;;;;;17.09;66.49;96784.88;4921804;29;20066;-78
2023/08/08 08:05:07;;;;;;;1.20;1.00;;;;;;;17.15;64.94;96775.28;4923290;29;20052;-79
2023/08/08 08:07:37;;;;;;;2.25;0.95;;;;;;;17.19;63.98;96782.53;4915210;29;20139;-79
2023/08/08 08:10:07;;;;;;;1.10;1.00;;;;;;;17.23;63.53;96783.72;4913023;29;20113;-79
2023/08/08 08:12:35;;;;;;;1.83;1.23;;;;;;;17.32;64.44;96772.84;4911879;29;20074;-79
2023/08/08 08:15:05;;;;;;;4.25;0.95;;;;;;;17.38;62.42;96767.53;4910174;29;20063;-79
2023/08/08 08:17:33;;;;;;;1.25;0.75;;;;;;;17.49;61.93;96776.50;4909359;29;20052;-79
2023/08/08 08:20:05;;;;;;;3.47;1.10;;;;;;;17.61;63.39;96779.22;4908583;29;20064;-79
2023/08/08 08:22:32;;;;;;;3.13;1.23;;;;;;;17.73;63.43;96776.63;4908911;29;20057;-79
2023/08/08 08:25:00;;;;;;;2.25;1.30;;;;;;;17.81;62.20;96781.63;4908531;29;20499;-79
2023/08/08 08:27:28;;;;;;;1.15;1.05;;;;;;;17.89;62.76;96770.78;4906458;29;20056;-79
2023/08/08 08:29:55;;;;;;;1.50;1.05;;;;;;;17.97;61.70;96767.81;4907072;29;20048;-79
2023/08/08 08:32:24;;;;;;;3.22;1.23;;;;;;;18.04;61.12;96773.81;4907539;29;20579;-79
2023/08/08 08:34:52;;;;;;;2.03;1.13;;;;;;;18.06;61.42;96770.94;4906934;29;20049;-79
2023/08/08 08:37:20;;;;;;;1.80;1.10;;;;;;;18.09;62.04;96775.78;4907656;29;20056;-79
2023/08/08 08:39:47;;;;;;;0.93;0.80;;;;;;;18.15;61.52;96779.34;4907192;29;20056;-79
2023/08/08 08:42:16;;;;;;;1.52;1.15;;;;;;;18.26;60.94;96771.47;4906727;29;20079;-79
2023/08/08 08:44:44;;;;;;;2.60;1.20;;;;;;;18.37;61.11;96777.81;4905934;29;20052;-79
2023/08/08 08:47:14;;;;;;;1.33;1.17;;;;;;;18.46;60.90;96767.72;4906494;29;20104;-79
2023/08/08 08:49:43;;;;;;;2.28;1.20;;;;;;;18.56;61.08;96761.88;4905935;29;20108;-79
2023/08/08 08:52:11;;;;;;;1.38;0.90;;;;;;;18.62;60.27;96763.59;4905420;29;20052;-79
2023/08/08 08:54:39;;;;;;;1.52;1.10;;;;;;;18.71;58.96;96762.22;4906190;29;20072;-79
2023/08/08 08:57:06;;;;;;;2.35;1.25;;;;;;;18.80;59.46;96763.50;4906848;29;20116;-79
2023/08/08 08:59:34;;;;;;;2.13;0.90;;;;;;;18.88;58.86;96772.94;4905554;29;20068;-79
2023/08/08 09:02:02;;;;;;;3.35;1.20;;;;;;;18.91;57.76;96768.00;4905312;29;20055;-79
2023/08/08 09:04:30;;;;;;;0.98;0.80;;;;;;;18.89;57.16;96767.44;4906447;29;20052;-79
2023/08/08 09:07:00;;;;;;;1.90;1.05;;;;;;;18.85;55.13;96768.94;4907130;29;20112;-79
2023/08/08 09:09:27;;;;;;;1.20;0.98;;;;;;;18.83;54.97;96765.72;4906346;29;20120;-79
2023/08/08 09:11:55;;;;;;;1.73;1.00;;;;;;;18.86;58.41;96769.72;4904966;29;20045;-79
2023/08/08 09:14:25;;;;;;;2.13;0.93;;;;;;;18.88;55.95;96767.66;4906280;29;20089;-79
2023/08/08 09:16:54;;;;;;;2.15;0.95;;;;;;;18.86;55.66;96770.53;4905718;29;20049;-79
2023/08/08 09:19:22;;;;;;;1.73;1.10;;;;;;;18.88;56.14;96757.09;4905875;29;20111;-79
2023/08/08 09:21:51;;;;;;;1.67;0.82;;;;;;;18.90;55.39;96762.94;4904456;29;20052;-79
2023/08/08 09:24:21;;;;;;;1.67;1.08;;;;;;;18.89;56.67;96762.16;4905491;29;20503;-79
2023/08/08 09:26:49;;;;;;;1.77;0.88;;;;;;;18.91;56.44;96757.44;4906415;29;20454;-79
2023/08/08 09:29:16;;;;;;;1.40;0.98;;;;;;;18.93;57.71;96765.94;4905801;29;20091;-79
2023/08/08 09:31:46;;;;;;;3.70;1.10;;;;;;;18.97;55.80;96760.97;4906683;29;20060;-79
2023/08/08 09:34:14;;;;;;;2.03;1.02;;;;;;;18.94;54.75;96756.97;4906576;29;20420;-78
2023/08/08 09:36:42;;;;;;;6.10;1.38;;;;;;;18.95;56.45;96757.75;4906819;29;20081;-79
2023/08/08 09:39:10;;;;;;;1.10;1.00;;;;;;;19.04;55.59;96759.00;4907060;29;20048;-79
2023/08/08 09:41:39;;;;;;;1.25;1.00;;;;;;;19.12;55.66;96757.88;4906130;29;20092;-79
2023/08/08 09:44:09;;;;;;;2.47;0.90;;;;;;;19.13;54.64;96754.19;4906992;29;20053;-79
2023/08/08 09:46:40;;;;;;;3.50;1.42;;;;;;;19.24;56.87;96748.09;4907349;29;20052;-79
2023/08/08 09:49:11;;;;;;;1.63;1.23;;;;;;;19.33;57.21;96754.63;4907989;29;20056;-79
2023/08/08 09:51:39;;;;;;;5.15;1.10;;;;;;;19.41;56.43;96744.69;4905323;29;20491;-79
2023/08/08 09:54:07;;;;;;;1.33;0.82;;;;;;;19.47;55.88;96741.13;4905342;29;20079;-79
2023/08/08 09:56:35;;;;;;;3.80;1.40;;;;;;;19.49;54.08;96746.97;4906147;29;20075;-79
2023/08/08 09:59:06;;;;;;;3.08;1.30;;;;;;;19.43;53.68;96750.56;4906299;29;20052;-79
2023/08/08 10:01:34;;;;;;;1.67;1.00;;;;;;;19.32;53.24;96738.97;4908427;29;20053;-79
2023/08/08 10:04:04;;;;;;;3.40;1.25;;;;;;;19.26;54.91;96743.38;4906073;29;20045;-79
2023/08/08 10:06:32;;;;;;;2.60;1.13;;;;;;;19.20;53.25;96741.66;4905772;29;20072;-79
2023/08/08 10:09:02;;;;;;;3.38;1.20;;;;;;;19.17;53.48;96749.22;4905087;29;20056;-79
2023/08/08 10:11:32;;;;;;;2.08;1.20;;;;;;;19.19;53.44;96742.69;4904514;29;20131;-79
2023/08/08 10:14:03;;;;;;;1.80;1.02;;;;;;;19.27;54.21;96733.59;4905241;29;20057;-78
2023/08/08 10:16:34;;;;;;;1.30;0.90;;;;;;;19.34;55.47;96739.53;4911654;29;20083;-79
2023/08/08 10:19:05;;;;;;;0.85;0.70;;;;;;;19.41;54.66;96740.22;4905821;29;20060;-79
2023/08/08 10:21:34;;;;;;;2.55;1.30;;;;;;;19.51;53.20;96723.75;4902995;29;20454;-79
2023/08/08 10:24:04;;;;;;;2.63;1.23;;;;;;;19.63;51.45;96736.91;4904073;29;20060;-79
2023/08/08 10:26:32;;;;;;;1.88;1.00;;;;;;;19.71;52.56;96729.44;4904572;29;20052;-79
2023/08/08 10:29:01;;;;;;;1.30;1.00;;;;;;;19.78;50.25;96734.59;4904628;29;20055;-79
2023/08/08 10:31:36;;;;;;;3.42;0.98;;;;;;;19.84;52.77;96732.84;4904276;29;20049;-79
2023/08/08 10:34:05;;;;;;;2.00;1.02;;;;;;;19.91;52.59;96725.56;4904432;29;20060;-79
2023/08/08 10:36:52;;;;;;;3.10;0.90;;;;;;;19.95;52.75;96718.75;4904100;29;20117;-79
2023/08/08 10:39:21;;;;;;;0.80;0.80;;;;;;;20.05;50.24;96721.59;4904543;29;20053;-79
2023/08/08 10:41:51;;;;;;;2.72;0.93;;;;;;;20.16;49.72;96715.41;4903990;29;20060;-79
2023/08/08 10:44:24;;;;;;;1.98;1.02;;;;;;;20.27;49.63;96710.25;4903715;29;20101;-79
2023/08/08 10:46:54;;;;;;;2.08;1.00;;;;;;;20.40;49.02;96715.25;4903671;29;20052;-79
2023/08/08 10:49:25;;;;;;;1.48;0.90;;;;;;;20.45;47.84;96711.88;4903644;29;20060;-79
2023/08/08 10:51:52;;;;;;;1.30;0.90;;;;;;;20.48;47.65;96717.47;4903100;29;20052;-79
2023/08/08 10:54:23;;;;;;;1.67;1.10;;;;;;;20.51;46.54;96710.88;4903797;29;20120;-79
2023/08/08 10:56:52;;;;;;;0.80;0.70;;;;;;;20.56;50.90;96709.13;4902775;29;20061;-79
2023/08/08 10:59:21;;;;;;;2.75;1.00;;;;;;;20.61;47.45;96718.25;4903173;29;20052;-79
2023/08/08 11:01:56;;;;;;;1.10;0.73;;;;;;;20.66;48.87;96713.81;4902709;29;20063;-79
2023/08/08 11:04:26;;;;;;;2.67;1.38;;;;;;;20.69;46.62;96720.47;4902873;29;20408;-79
2023/08/08 11:06:54;;;;;;;2.10;1.02;;;;;;;20.74;50.29;96702.00;4902979;29;20053;-79
2023/08/08 11:09:22;;;;;;;2.38;0.80;;;;;;;20.81;49.90;96705.25;4903161;29;20052;-79
2023/08/08 11:11:50;;;;;;;0.77;0.70;;;;;;;20.87;49.31;96709.59;4901789;29;20048;-79
2023/08/08 11:14:20;;;;;;;3.15;0.88;;;;;;;20.89;48.22;96712.81;4902657;29;20052;-79
2023/08/08 11:16:49;;;;;;;2.42;1.10;;;;;;;20.85;47.85;96698.44;4902625;29;20117;-79
2023/08/08 11:19:20;;;;;;;2.33;1.20;;;;;;;20.78;46.75;96708.41;4903366;29;20048;-79
2023/08/08 11:21:49;;;;;;;1.23;1.00;;;;;;;20.65;46.10;96698.94;4902482;29;20052;-79
2023/08/08 11:24:17;;;;;;;1.83;0.98;;;;;;;20.58;46.95;96704.44;4902970;29;20487;-79
2023/08/08 11:26:47;;;;;;;1.45;0.60;;;;;;;20.59;47.98;96707.88;4902436;29;20044;-79
2023/08/08 11:29:15;;;;;;;4.13;1.27;;;;;;;20.62;46.61;96706.56;4902523;29;20063;-79
2023/08/08 11:31:43;;;;;;;1.13;0.95;;;;;;;20.66;46.79;96689.16;4902473;29;20044;-79
2023/08/08 11:34:12;;;;;;;1.00;0.60;;;;;;;20.70;47.22;96695.56;4903879;29;20060;-79
2023/08/08 11:36:41;;;;;;;2.80;1.20;;;;;;;20.72;46.07;96688.19;4906053;29;20435;-79
2023/08/08 11:39:10;;;;;;;1.63;1.00;;;;;;;20.81;46.69;96684.06;4906009;29;20052;-79
2023/08/08 11:41:40;;;;;;;1.75;1.17;;;;;;;20.87;45.16;96695.53;4905363;29;20056;-79
2023/08/08 11:44:08;;;;;;;1.40;0.90;;;;;;;20.88;47.53;96694.47;4906267;29;20052;-79
2023/08/08 11:46:44;;;;;;;1.08;0.82;;;;;;;20.89;44.91;96678.34;4905520;29;20053;-79
2023/08/08 11:49:15;;;;;;;2.35;1.13;;;;;;;20.91;44.35;96683.41;4905438;29;20108;-79
2023/08/08 11:51:46;;;;;;;2.78;0.70;;;;;;;20.86;45.12;96680.66;4905958;29;20049;-79
2023/08/08 11:54:15;;;;;;;2.63;1.15;;;;;;;20.90;47.72;96679.13;4906517;29;20052;-79
2023/08/08 11:56:44;;;;;;;1.67;0.90;;;;;;;20.95;44.43;96684.53;4906045;29;20048;-79
2023/08/08 11:59:12;;;;;;;0.98;0.50;;;;;;;21.02;45.75;96681.69;4906298;29;20056;-79
2023/08/08 12:01:42;;;;;;;0.73;0.73;;;;;;;21.07;44.61;96676.44;4906595;29;20087;-79
2023/08/08 12:04:09;;;;;;;0.93;0.80;;;;;;;21.08;45.15;96670.91;4907832;29;20471;-79
2023/08/08 12:06:39;;;;;;;0.82;0.70;;;;;;;21.04;47.00;96677.72;4908037;29;20132;-79
2023/08/08 12:09:11;;;;;;;1.42;0.80;;;;;;;21.01;44.93;96675.56;4906468;29;20538;-79
2023/08/08 12:11:40;;;;;;;1.88;0.90;;;;;;;20.99;44.37;96675.81;4905100;29;20056;-79
2023/08/08 12:14:09;;;;;;;1.27;1.00;;;;;;;20.99;44.32;96675.81;4905967;29;20080;-79
2023/08/08 12:16:39;;;;;;;1.38;1.08;;;;;;;20.97;43.84;96677.91;4907645;29;20045;-79
2023/08/08 12:19:10;;;;;;;1.27;0.68;;;;;;;20.98;44.23;96673.41;4907545;29;20071;-79
2023/08/08 12:21:38;;;;;;;1.77;0.90;;;;;;;21.04;44.53;96671.63;4905063;29;20083;-78
2023/08/08 12:24:07;;;;;;;1.38;1.00;;;;;;;21.13;43.67;96680.75;4905792;29;20621;-79
2023/08/08 12:26:36;;;;;;;3.65;1.20;;;;;;;21.22;47.08;96679.28;4905238;29;20475;-79
2023/08/08 12:29:04;;;;;;;4.13;0.82;;;;;;;21.24;43.14;96674.53;4914907;29;20055;-79
2023/08/08 12:31:32;;;;;;;1.20;0.80;;;;;;;21.22;42.77;96675.81;4907261;29;20052;-78
2023/08/08 12:34:00;;;;;;;3.50;0.60;;;;;;;21.20;44.23;96670.75;4904785;29;20059;-79
2023/08/08 12:36:28;;;;;;;2.72;1.08;;;;;;;21.20;44.24;96682.16;4906030;29;20057;-79
2023/08/08 12:38:55;;;;;;;1.27;0.73;;;;;;;21.18;43.76;96678.16;4905554;29;20566;-79
2023/08/08 12:41:24;;;;;;;2.53;1.00;;;;;;;21.13;46.20;96678.91;4905077;29;20060;-79
2023/08/08 12:43:55;;;;;;;0.63;0.55;;;;;;;21.10;42.65;96670.63;4919401;29;20032;-79
2023/08/08 12:46:23;;;;;;;3.60;1.00;;;;;;;21.09;42.21;96674.34;4907432;29;20459;-79